Weather reports worldwide

Advertisment
Leon/Virgen del Camino, Spain (8055): temperature & dewpoint: 31.05.2020 18:00:00 - 06.06.2020 18:00:00 (CEST)Leon/Virgen del Camino, Spain (8055): wind speed: 31.05.2020 18:00:00 - 06.06.2020 18:00:00 (CEST)Leon/Virgen del Camino, Spain (8055): wind direction: 31.05.2020 18:00:00 - 06.06.2020 18:00:00 (CEST)
Date & Time tt [°C] td [°C] ff [km/h] ff [kn] dd
06.06.2020 18:00:00 - - - - -
06.06.2020 17:00:00 18,2 10,7 16 9 N
06.06.2020 16:00:00 23,0 8,4 15 8 NNE
06.06.2020 15:00:00 23,2 7,5 13 7 S
06.06.2020 14:00:00 22,1 8,4 11 6 SW
06.06.2020 13:00:00 21,0 9,6 9 5 WSW
06.06.2020 12:00:00 18,9 9,9 11 6 SW
06.06.2020 11:00:00 18,5 10,3 4 2 S
06.06.2020 10:00:00 16,5 8,9 4 2 ENE
06.06.2020 09:00:00 14,1 8,5 8 4 NE
06.06.2020 08:00:00 13,0 9,3 5 3 N
06.06.2020 07:00:00 10,3 7,2 5 3 WNW
06.06.2020 06:00:00 10,3 7,4 2 1 SSW
06.06.2020 05:00:00 11,2 7,9 0 0 N
06.06.2020 04:00:00 11,5 7,8 11 6 NW
06.06.2020 03:00:00 11,9 8,4 9 5 WNW
06.06.2020 02:00:00 13,7 8,9 11 6 NNW
06.06.2020 01:00:00 14,3 9,5 9 5 NW
06.06.2020 00:00:00 14,8 8,9 9 5 NNW
05.06.2020 23:00:00 17,0 9,2 11 6 WNW
05.06.2020 22:00:00 19,7 8,7 11 6 WNW
05.06.2020 21:00:00 22,9 8,9 16 9 W
05.06.2020 20:00:00 24,0 8,3 22 12 WSW
05.06.2020 19:00:00 24,8 7,4 15 8 WSW
05.06.2020 18:00:00 25,3 7,0 9 5 WNW
05.06.2020 17:00:00 24,5 6,9 13 7 WSW
05.06.2020 16:00:00 23,4 6,0 11 6 SSW
05.06.2020 15:00:00 21,6 5,3 11 6 SW
05.06.2020 14:00:00 19,8 4,9 13 7 SSW
05.06.2020 13:00:00 18,0 5,1 15 8 SW
05.06.2020 12:00:00 16,2 4,5 11 6 SW
05.06.2020 11:00:00 14,6 4,7 13 7 WSW
05.06.2020 10:00:00 12,3 4,2 13 7 W
05.06.2020 09:00:00 9,3 3,4 8 4 SSW
05.06.2020 08:00:00 6,7 2,9 5 3 S
05.06.2020 07:00:00 5,2 1,9 4 2 SSE
05.06.2020 06:00:00 5,1 2,3 4 2 NNE
05.06.2020 05:00:00 5,4 2,4 5 3 N
05.06.2020 04:00:00 6,2 3,2 11 6 NW
05.06.2020 03:00:00 5,9 2,9 11 6 W
05.06.2020 02:00:00 7,0 3,1 11 6 NW
05.06.2020 01:00:00 7,2 3,4 9 5 NW
05.06.2020 00:00:00 8,1 3,5 9 5 NNW
04.06.2020 23:00:00 10,2 4,1 9 5 N
04.06.2020 22:00:00 11,3 5,0 13 7 N
04.06.2020 21:00:00 14,0 4,4 15 8 N
04.06.2020 20:00:00 13,6 5,5 24 13 N
04.06.2020 19:00:00 16,2 5,5 21 11 NNW
04.06.2020 18:00:00 17,3 5,8 18 10 NW
04.06.2020 17:00:00 17,6 4,9 21 11 NNW
04.06.2020 16:00:00 15,8 4,3 16 9 NNW
04.06.2020 15:00:00 15,0 3,9 11 6 NNW
04.06.2020 14:00:00 16,2 4,0 15 8 N
04.06.2020 13:00:00 14,0 3,9 21 11 NNW
04.06.2020 12:00:00 14,6 5,7 16 9 NW
04.06.2020 11:00:00 14,0 5,8 21 11 N
04.06.2020 10:00:00 13,4 6,4 15 8 NW
04.06.2020 09:00:00 11,8 6,4 16 9 WNW
04.06.2020 08:00:00 9,0 4,8 11 6 W
04.06.2020 07:00:00 7,7 4,3 11 6 W
04.06.2020 06:00:00 8,4 3,8 11 6 NW
04.06.2020 05:00:00 9,9 4,4 16 9 W
04.06.2020 04:00:00 10,4 3,7 5 3 NNE
04.06.2020 03:00:00 9,2 4,4 9 5 W
04.06.2020 02:00:00 9,6 4,2 8 4 NNW
04.06.2020 01:00:00 10,3 4,6 9 5 NW
04.06.2020 00:00:00 11,8 5,2 9 5 NW
03.06.2020 23:00:00 13,4 6,5 8 4 NE
03.06.2020 22:00:00 15,1 8,1 11 6 N
03.06.2020 21:00:00 15,6 9,7 15 8 N
03.06.2020 20:00:00 18,1 10,0 18 10 N
03.06.2020 19:00:00 20,3 11,2 15 8 N
03.06.2020 18:00:00 20,3 11,6 9 5 N
03.06.2020 17:00:00 21,4 12,0 16 9 NNE
03.06.2020 16:00:00 19,9 13,0 9 5 N
03.06.2020 15:00:00 20,1 12,0 11 6 W
03.06.2020 14:00:00 22,7 12,6 21 11 WSW
03.06.2020 13:00:00 22,6 11,9 11 6 WSW
03.06.2020 12:00:00 22,0 12,3 9 5 W
03.06.2020 11:00:00 20,0 13,1 4 2 NNE
03.06.2020 10:00:00 18,4 13,3 5 3 NE
03.06.2020 09:00:00 16,1 12,4 4 2 NNW
03.06.2020 08:00:00 15,0 12,1 5 3 NW
03.06.2020 07:00:00 13,8 11,0 4 2 WNW
03.06.2020 06:00:00 14,0 11,2 4 2 NNW
03.06.2020 05:00:00 15,7 11,9 4 2 SE
03.06.2020 04:00:00 16,0 11,8 0 0 N
03.06.2020 03:00:00 16,6 12,3 9 5 NW
03.06.2020 02:00:00 16,3 10,7 9 5 NNW
03.06.2020 01:00:00 16,9 10,5 9 5 NNW
03.06.2020 00:00:00 17,7 10,6 8 4 NNE
02.06.2020 23:00:00 19,1 10,1 13 7 ENE
02.06.2020 22:00:00 20,3 12,5 9 5 NNE
02.06.2020 21:00:00 21,3 11,0 9 5 N
02.06.2020 20:00:00 23,0 10,8 8 4 NNW
02.06.2020 19:00:00 24,8 6,4 4 2 NW
02.06.2020 18:00:00 27,0 7,2 5 3 WSW
02.06.2020 17:00:00 26,9 7,5 5 3 SSE
02.06.2020 16:00:00 25,7 8,2 5 3 E
02.06.2020 15:00:00 24,6 9,3 5 3 W
02.06.2020 14:00:00 23,0 10,8 4 2 ENE
02.06.2020 13:00:00 21,5 11,2 5 3 NE
02.06.2020 12:00:00 21,1 11,3 4 2 SSE
02.06.2020 11:00:00 18,9 10,7 8 4 SE
02.06.2020 10:00:00 19,5 9,4 8 4 ENE
02.06.2020 09:00:00 17,6 11,2 4 2 S
02.06.2020 08:00:00 16,4 11,1 4 2 NNW
02.06.2020 07:00:00 15,2 10,6 8 4 WSW
02.06.2020 06:00:00 16,3 10,8 8 4 WSW
02.06.2020 05:00:00 15,9 10,2 8 4 N
02.06.2020 04:00:00 16,5 10,3 9 5 N
02.06.2020 03:00:00 16,4 10,3 8 4 N
02.06.2020 02:00:00 16,4 10,5 11 6 N
02.06.2020 01:00:00 17,1 10,5 11 6 N
02.06.2020 00:00:00 18,1 10,9 9 5 N
01.06.2020 23:00:00 19,9 11,1 9 5 NNE
01.06.2020 22:00:00 20,5 11,1 9 5 N
01.06.2020 21:00:00 23,9 8,6 4 2 NNE
01.06.2020 20:00:00 25,2 7,3 8 4 S
01.06.2020 19:00:00 26,4 6,9 11 6 S
01.06.2020 18:00:00 25,9 6,5 9 5 SSW
01.06.2020 17:00:00 25,6 6,9 11 6 SW
01.06.2020 16:00:00 25,0 9,0 9 5 S
01.06.2020 15:00:00 24,3 8,3 8 4 S
01.06.2020 14:00:00 23,5 8,0 9 5 S
01.06.2020 13:00:00 22,2 10,0 8 4 SSW
01.06.2020 12:00:00 20,6 9,5 9 5 SSW
01.06.2020 11:00:00 19,1 10,4 5 3 ENE
01.06.2020 10:00:00 16,9 10,8 9 5 NE
01.06.2020 09:00:00 14,5 10,7 9 5 NE
01.06.2020 08:00:00 11,2 9,6 9 5 N
01.06.2020 07:00:00 10,1 8,7 8 4 NNW
01.06.2020 06:00:00 10,1 8,4 9 5 NNW
01.06.2020 05:00:00 11,5 9,4 4 2 W
01.06.2020 04:00:00 13,2 10,2 0 0 N
01.06.2020 03:00:00 12,6 9,8 5 3 NNE
01.06.2020 02:00:00 13,6 10,6 8 4 NNE
01.06.2020 01:00:00 14,8 10,2 5 3 NE
01.06.2020 00:00:00 15,4 10,0 9 5 S
31.05.2020 23:00:00 15,8 11,3 13 7 S
31.05.2020 22:00:00 17,3 10,7 16 9 S
31.05.2020 21:00:00 21,0 10,2 5 3 SSE
31.05.2020 20:00:00 21,8 9,7 8 4 SE
31.05.2020 19:00:00 22,3 9,1 11 6 ENE
31.05.2020 18:00:00 22,6 9,1 8 4 NNE

tt = temperature
td = dewpoint
ff = wind speed
dd = wind direction

Next stations